createdAt,value
2022-12-25T11:08:26.587Z,96674.28
2022-12-25T11:11:06.752Z,96698.28
2022-12-25T11:13:48.000Z,96690.25
2022-12-25T11:16:30.316Z,96726.59
2022-12-25T11:19:00.224Z,96728.25
2022-12-25T11:21:33.077Z,96740.31
2022-12-25T11:24:07.242Z,96753.28
2022-12-25T11:26:56.741Z,96745.06
2022-12-25T11:29:30.442Z,96771.31
2022-12-25T11:32:02.342Z,96764.38
2022-12-25T11:34:32.123Z,96781.47
2022-12-25T11:37:01.456Z,96780.06
2022-12-25T11:39:34.568Z,96789.03
2022-12-25T11:42:05.201Z,96797.34
2022-12-25T11:44:41.987Z,96795.47
2022-12-25T11:47:25.041Z,96805.66
2022-12-25T11:50:00.488Z,96830.41
2022-12-25T11:52:32.554Z,96833.69
2022-12-25T11:55:05.660Z,96833.31
2022-12-25T11:57:35.981Z,96857.22
2022-12-25T12:00:07.101Z,96859.75
2022-12-25T12:02:39.840Z,96847.53
2022-12-25T12:05:13.721Z,96877.06
2022-12-25T12:07:50.742Z,96888.84
2022-12-25T12:10:22.181Z,96921.75
2022-12-25T12:12:50.064Z,96933.75
2022-12-25T12:15:36.905Z,96923.41
2022-12-25T12:18:28.905Z,96943.03
2022-12-25T12:20:59.948Z,96957.72
2022-12-25T12:23:29.917Z,96994.91
2022-12-25T12:25:58.040Z,96993.28
2022-12-25T12:28:37.389Z,97004.94
2022-12-25T12:31:06.806Z,97026.31
2022-12-25T12:33:37.014Z,97032.84
2022-12-25T12:36:06.005Z,97047.53
2022-12-25T12:38:34.751Z,97063.16
2022-12-25T12:41:04.485Z,97063.50
2022-12-25T12:43:36.465Z,97052.97
2022-12-25T12:46:06.843Z,97066.19
2022-12-25T12:48:39.671Z,97078.81
2022-12-25T12:51:12.133Z,97074.59
2022-12-25T12:53:41.469Z,97079.25
2022-12-25T12:56:17.718Z,97090.59
2022-12-25T12:58:51.241Z,97099.25
2022-12-25T13:01:35.721Z,97071.94
2022-12-25T13:04:26.841Z,97080.84
2022-12-25T13:07:00.828Z,97100.28
2022-12-25T13:09:46.324Z,97092.41
2022-12-25T13:12:15.501Z,97104.25
2022-12-25T13:14:47.916Z,97107.16
2022-12-25T13:17:22.503Z,97116.00
2022-12-25T13:19:54.285Z,97109.56
2022-12-25T13:22:27.043Z,97112.00
2022-12-25T13:24:56.482Z,97104.50
2022-12-25T13:27:26.248Z,97110.69
2022-12-25T13:29:54.533Z,97117.81
2022-12-25T13:32:33.638Z,97136.13
2022-12-25T13:35:01.694Z,97152.91
2022-12-25T13:37:31.022Z,97154.13
2022-12-25T13:40:00.474Z,97167.44
2022-12-25T13:42:36.690Z,97182.00
2022-12-25T13:45:21.432Z,97179.75
2022-12-25T13:47:55.145Z,97192.88
2022-12-25T13:50:27.441Z,97185.69
2022-12-25T13:52:56.243Z,97184.44
2022-12-25T13:55:28.538Z,97181.53
2022-12-25T13:58:01.471Z,97184.72
2022-12-25T14:00:35.664Z,97180.50
2022-12-25T14:03:07.847Z,97181.25
2022-12-25T14:05:42.981Z,97176.00
2022-12-25T14:08:16.238Z,97160.44
2022-12-25T14:10:46.445Z,97164.19
2022-12-25T14:13:15.687Z,97157.44
2022-12-25T14:15:45.400Z,97141.31
2022-12-25T14:18:17.293Z,97142.53
2022-12-25T14:21:08.439Z,97128.19
2022-12-25T14:23:54.901Z,97111.88
2022-12-25T14:26:27.965Z,97106.16
2022-12-25T14:29:05.483Z,97094.06
2022-12-25T14:31:34.112Z,97079.47
2022-12-25T14:34:03.518Z,97062.31
2022-12-25T14:36:31.691Z,97045.25
2022-12-25T14:39:01.192Z,97027.66
2022-12-25T14:41:33.929Z,96999.72
2022-12-25T14:44:03.222Z,96986.34
2022-12-25T14:46:32.833Z,96966.75
2022-12-25T14:49:01.047Z,96953.38
2022-12-25T14:51:30.563Z,96935.03
2022-12-25T14:54:00.435Z,96921.16
2022-12-25T14:56:32.075Z,96904.31
2022-12-25T14:59:01.339Z,96882.03
2022-12-25T15:01:37.207Z,96862.94
2022-12-25T15:04:06.665Z,96835.25
2022-12-25T15:06:34.765Z,96823.09
2022-12-25T15:09:07.818Z,96801.56
2022-12-25T15:11:37.133Z,96780.03
2022-12-25T15:14:06.657Z,96772.28
2022-12-25T15:16:40.381Z,96766.34
2022-12-25T15:19:09.693Z,96749.50
2022-12-25T15:21:37.858Z,96743.53
2022-12-25T15:24:05.914Z,96737.84
2022-12-25T15:26:33.941Z,96740.75
2022-12-25T15:29:02.429Z,96726.44
2022-12-25T15:31:31.903Z,96717.25
2022-12-25T15:34:01.457Z,96703.69
2022-12-25T15:36:29.488Z,96696.50
2022-12-25T15:38:58.080Z,96695.97
2022-12-25T15:41:48.124Z,96682.59
2022-12-25T15:44:16.718Z,96677.66
2022-12-25T15:46:46.096Z,96679.34
2022-12-25T15:49:14.625Z,96668.69
2022-12-25T15:51:43.225Z,96662.72
2022-12-25T15:54:12.046Z,96655.03
2022-12-25T15:56:39.837Z,96655.03
2022-12-25T15:59:10.105Z,96645.69
2022-12-25T16:01:38.190Z,96627.16
2022-12-25T16:04:07.655Z,96613.06
2022-12-25T16:06:35.660Z,96603.41
2022-12-25T16:09:03.618Z,96616.53
2022-12-25T16:11:31.841Z,96610.53
2022-12-25T16:14:01.324Z,96607.09
2022-12-25T16:16:29.449Z,96581.94
2022-12-25T16:18:57.968Z,96575.94
2022-12-25T16:21:26.572Z,96578.88
2022-12-25T16:23:54.574Z,96592.66
2022-12-25T16:26:22.619Z,96596.81
2022-12-25T16:28:50.876Z,96604.13
2022-12-25T16:31:18.918Z,96595.25
2022-12-25T16:33:46.852Z,96592.53
2022-12-25T16:36:14.959Z,96588.09
2022-12-25T16:38:42.954Z,96586.63
2022-12-25T16:41:14.301Z,96581.91
2022-12-25T16:43:42.871Z,96602.28
2022-12-25T16:46:15.211Z,96607.00
2022-12-25T16:48:53.684Z,96620.56
2022-12-25T16:51:22.842Z,96631.13
2022-12-25T16:53:53.720Z,96628.63
2022-12-25T16:56:25.596Z,96630.00
2022-12-25T16:58:53.905Z,96642.03
2022-12-25T17:01:23.316Z,96639.78
2022-12-25T17:03:51.661Z,96636.06
2022-12-25T17:06:23.298Z,96640.25
2022-12-25T17:08:52.313Z,96647.84
2022-12-25T17:11:24.933Z,96640.91
2022-12-25T17:13:53.354Z,96654.47
2022-12-25T17:16:23.245Z,96647.56
2022-12-25T17:18:59.131Z,96640.66
2022-12-25T17:21:27.987Z,96642.63
2022-12-25T17:24:02.319Z,96622.16
2022-12-25T17:26:32.768Z,96618.16
2022-12-25T17:29:00.786Z,96619.34
2022-12-25T17:31:29.279Z,96625.25
2022-12-25T17:33:57.881Z,96646.94
2022-12-25T17:36:25.812Z,96663.41
2022-12-25T17:38:53.773Z,96646.84
2022-12-25T17:41:22.093Z,96642.84
2022-12-25T17:43:50.216Z,96641.34
2022-12-25T17:46:19.385Z,96639.13
2022-12-25T17:48:47.558Z,96646.97
2022-12-25T17:51:19.558Z,96646.22
2022-12-25T17:53:48.752Z,96659.22
2022-12-25T17:56:18.201Z,96657.47
2022-12-25T17:58:57.143Z,96656.88
2022-12-25T18:01:26.107Z,96654.38
2022-12-25T18:03:54.191Z,96654.59
2022-12-25T18:06:23.096Z,96659.72
2022-12-25T18:08:51.119Z,96659.63
2022-12-25T18:11:20.518Z,96661.31
2022-12-25T18:13:52.165Z,96661.50
2022-12-25T18:16:20.998Z,96660.47
2022-12-25T18:18:52.271Z,96661.41
2022-12-25T18:21:22.048Z,96656.94
2022-12-25T18:23:50.660Z,96642.63
2022-12-25T18:26:19.665Z,96649.75
2022-12-25T18:28:49.592Z,96641.34
2022-12-25T18:31:19.451Z,96653.84
2022-12-25T18:33:48.316Z,96645.91
2022-12-25T18:36:20.258Z,96637.78
2022-12-25T18:38:52.012Z,96638.72
2022-12-25T18:41:20.979Z,96643.84
2022-12-25T18:43:55.809Z,96638.91
2022-12-25T18:46:26.081Z,96637.88
2022-12-25T18:48:57.690Z,96638.81
2022-12-25T18:51:29.858Z,96646.94
2022-12-25T18:54:02.944Z,96645.44
2022-12-25T18:56:31.012Z,96638.53
2022-12-25T18:58:59.995Z,96635.53
2022-12-25T19:01:28.326Z,96635.53
2022-12-25T19:04:04.112Z,96635.28
2022-12-25T19:06:33.916Z,96628.06
2022-12-25T19:09:09.394Z,96619.69
2022-12-25T19:11:45.628Z,96623.59
2022-12-25T19:14:15.774Z,96625.56
2022-12-25T19:16:44.017Z,96628.72
2022-12-25T19:19:12.247Z,96624.25
2022-12-25T19:21:40.521Z,96632.38
2022-12-25T19:24:08.747Z,96624.25
2022-12-25T19:26:36.929Z,96605.03
2022-12-25T19:29:05.311Z,96623.22
2022-12-25T19:31:33.646Z,96616.31
2022-12-25T19:34:01.885Z,96632.09
2022-12-25T19:36:30.133Z,96631.06
2022-12-25T19:38:58.513Z,96622.19
2022-12-25T19:41:27.057Z,96629.09
2022-12-25T19:43:55.492Z,96630.31
2022-12-25T19:46:26.288Z,96622.94
2022-12-25T19:48:55.105Z,96624.16
2022-12-25T19:51:24.420Z,96626.88
2022-12-25T19:53:52.768Z,96636.94
2022-12-25T19:56:20.714Z,96631.19
2022-12-25T19:58:48.953Z,96630.78
2022-12-25T20:01:18.758Z,96628.50
2022-12-25T20:03:48.227Z,96634.41
2022-12-25T20:06:34.341Z,96633.66
2022-12-25T20:09:08.650Z,96632.16
2022-12-25T20:11:37.231Z,96630.34
2022-12-25T20:14:05.921Z,96639.69
2022-12-25T20:16:33.903Z,96640.81
2022-12-25T20:19:01.770Z,96636.59
2022-12-25T20:21:30.265Z,96639.31
2022-12-25T20:23:58.386Z,96635.84
2022-12-25T20:26:27.693Z,96642.94
2022-12-25T20:28:55.585Z,96647.31
2022-12-25T20:31:27.667Z,96644.03
2022-12-25T20:34:01.347Z,96641.03
2022-12-25T20:36:36.091Z,96643.47
2022-12-25T20:39:06.267Z,96651.13
2022-12-25T20:41:34.184Z,96657.75
2022-12-25T20:44:04.408Z,96657.00
2022-12-25T20:46:32.734Z,96672.50
2022-12-25T20:49:01.687Z,96664.38
2022-12-25T20:51:29.763Z,96666.31
2022-12-25T20:53:57.671Z,96657.75
2022-12-25T20:56:26.890Z,96669.78
2022-12-25T20:58:59.632Z,96673.50
2022-12-25T21:01:28.749Z,96680.13
2022-12-25T21:03:57.153Z,96680.13
2022-12-25T21:06:26.487Z,96689.47
2022-12-25T21:08:54.609Z,96682.09
2022-12-25T21:11:23.658Z,96681.81
2022-12-25T21:13:52.064Z,96670.69
2022-12-25T21:16:22.503Z,96671.44
2022-12-25T21:18:52.501Z,96668.47
2022-12-25T21:21:21.601Z,96671.16
2022-12-25T21:23:49.867Z,96672.38
2022-12-25T21:26:18.705Z,96666.22
2022-12-25T21:28:51.771Z,96661.72
2022-12-25T21:31:20.413Z,96661.44
2022-12-25T21:33:55.304Z,96674.66
2022-12-25T21:36:25.256Z,96677.84
2022-12-25T21:38:54.789Z,96684.91
2022-12-25T21:41:25.248Z,96678.19
2022-12-25T21:43:53.844Z,96674.44
2022-12-25T21:46:22.070Z,96675.19
2022-12-25T21:48:50.071Z,96676.56
2022-12-25T21:51:40.976Z,96683.94
2022-12-25T21:54:09.410Z,96692.97
2022-12-25T21:56:44.170Z,96689.97
2022-12-25T21:59:16.121Z,96688.19
2022-12-25T22:01:44.848Z,96689.09
2022-12-25T22:04:13.723Z,96703.09
2022-12-25T22:07:00.464Z,96700.09
2022-12-25T22:09:28.705Z,96711.09
2022-12-25T22:12:18.324Z,96709.56
2022-12-25T22:14:56.832Z,96711.97
2022-12-25T22:17:45.568Z,96718.31
2022-12-25T22:20:15.146Z,96721.47
2022-12-25T22:22:43.229Z,96717.25
2022-12-25T22:25:11.717Z,96713.53
2022-12-25T22:27:40.935Z,96722.84
2022-12-25T22:30:14.236Z,96715.19
2022-12-25T22:32:42.477Z,96717.44
2022-12-25T22:35:12.539Z,96717.88
2022-12-25T22:37:41.519Z,96718.63
2022-12-25T22:40:10.964Z,96730.94
2022-12-25T22:42:39.008Z,96717.44
2022-12-25T22:45:07.307Z,96730.63
2022-12-25T22:47:35.670Z,96732.91
2022-12-25T22:50:03.648Z,96731.38
2022-12-25T22:52:31.649Z,96729.44
2022-12-25T22:54:59.564Z,96723.28
2022-12-25T22:57:27.528Z,96732.91
2022-12-25T22:59:55.391Z,96724.03
2022-12-25T23:02:23.875Z,96749.28
2022-12-25T23:04:51.819Z,96738.47
2022-12-25T23:07:19.836Z,96741.94
2022-12-25T23:09:47.730Z,96733.81
2022-12-25T23:12:34.511Z,96735.03
2022-12-25T23:15:02.571Z,96754.25
2022-12-25T23:17:53.560Z,96747.16
2022-12-25T23:20:40.167Z,96741.75
2022-12-25T23:23:28.832Z,96738.88
2022-12-25T23:26:16.928Z,96729.56
2022-12-25T23:29:03.765Z,96742.81
2022-12-25T23:31:36.940Z,96739.34
2022-12-25T23:34:08.616Z,96737.41
2022-12-25T23:36:36.602Z,96740.81
2022-12-25T23:39:09.664Z,96745.50
2022-12-25T23:41:42.160Z,96746.22
2022-12-25T23:44:11.621Z,96750.91
2022-12-25T23:46:39.691Z,96750.91
2022-12-25T23:49:08.389Z,96759.03
2022-12-25T23:51:36.977Z,96760.03
2022-12-25T23:54:05.674Z,96756.91
2022-12-25T23:56:33.878Z,96775.38
2022-12-25T23:59:02.287Z,96765.28
